sensor_id;sensor_type;location;lat;lon;timestamp;P1;durP1;ratioP1;P2;durP2;ratioP2
50585;SDS011;36542;51.700;8.846;2023-09-07T00:01:07;4.93;;;4.37;;
50585;SDS011;36542;51.700;8.846;2023-09-07T00:03:33;5.10;;;4.60;;
50585;SDS011;36542;51.700;8.846;2023-09-07T00:05:58;5.40;;;4.73;;
50585;SDS011;36542;51.700;8.846;2023-09-07T00:08:24;5.83;;;4.17;;
50585;SDS011;36542;51.700;8.846;2023-09-07T00:10:50;5.63;;;4.87;;
50585;SDS011;36542;51.700;8.846;2023-09-07T00:13:16;6.40;;;5.30;;
50585;SDS011;36542;51.700;8.846;2023-09-07T00:15:42;5.33;;;4.60;;
50585;SDS011;36542;51.700;8.846;2023-09-07T00:18:08;5.37;;;4.20;;
50585;SDS011;36542;51.700;8.846;2023-09-07T00:20:33;9.77;;;5.23;;
50585;SDS011;36542;51.700;8.846;2023-09-07T00:22:59;6.50;;;4.73;;
50585;SDS011;36542;51.700;8.846;2023-09-07T00:25:25;5.10;;;4.60;;
50585;SDS011;36542;51.700;8.846;2023-09-07T00:27:51;5.97;;;4.77;;
50585;SDS011;36542;51.700;8.846;2023-09-07T00:30:17;5.30;;;4.80;;
50585;SDS011;36542;51.700;8.846;2023-09-07T00:32:42;7.40;;;5.43;;
50585;SDS011;36542;51.700;8.846;2023-09-07T00:35:08;8.20;;;5.10;;
50585;SDS011;36542;51.700;8.846;2023-09-07T00:37:33;6.83;;;5.30;;
50585;SDS011;36542;51.700;8.846;2023-09-07T00:39:59;6.83;;;5.13;;
50585;SDS011;36542;51.700;8.846;2023-09-07T00:42:25;6.80;;;5.57;;
50585;SDS011;36542;51.700;8.846;2023-09-07T00:44:50;7.53;;;5.07;;
50585;SDS011;36542;51.700;8.846;2023-09-07T00:47:16;5.77;;;5.20;;
50585;SDS011;36542;51.700;8.846;2023-09-07T00:49:42;10.03;;;5.43;;
50585;SDS011;36542;51.700;8.846;2023-09-07T00:52:08;10.87;;;6.00;;
50585;SDS011;36542;51.700;8.846;2023-09-07T00:54:34;6.13;;;5.53;;
50585;SDS011;36542;51.700;8.846;2023-09-07T00:57:03;5.97;;;5.37;;
50585;SDS011;36542;51.700;8.846;2023-09-07T00:59:30;6.60;;;5.27;;
50585;SDS011;36542;51.700;8.846;2023-09-07T01:01:57;6.87;;;5.23;;
50585;SDS011;36542;51.700;8.846;2023-09-07T01:04:22;7.60;;;5.30;;
50585;SDS011;36542;51.700;8.846;2023-09-07T01:06:51;5.40;;;4.90;;
50585;SDS011;36542;51.700;8.846;2023-09-07T01:09:23;7.50;;;5.63;;
50585;SDS011;36542;51.700;8.846;2023-09-07T01:11:51;8.37;;;4.97;;
50585;SDS011;36542;51.700;8.846;2023-09-07T01:14:17;5.23;;;4.73;;
50585;SDS011;36542;51.700;8.846;2023-09-07T01:16:43;7.23;;;4.93;;
50585;SDS011;36542;51.700;8.846;2023-09-07T01:19:09;7.03;;;5.00;;
50585;SDS011;36542;51.700;8.846;2023-09-07T01:21:36;5.10;;;4.60;;
50585;SDS011;36542;51.700;8.846;2023-09-07T01:24:06;8.70;;;4.70;;
50585;SDS011;36542;51.700;8.846;2023-09-07T01:26:34;5.33;;;4.83;;
50585;SDS011;36542;51.700;8.846;2023-09-07T01:29:03;6.20;;;4.63;;
50585;SDS011;36542;51.700;8.846;2023-09-07T01:31:30;5.77;;;5.27;;
50585;SDS011;36542;51.700;8.846;2023-09-07T01:33:55;6.90;;;5.27;;
50585;SDS011;36542;51.700;8.846;2023-09-07T01:36:21;7.70;;;5.23;;
50585;SDS011;36542;51.700;8.846;2023-09-07T01:38:46;6.63;;;5.37;;
50585;SDS011;36542;51.700;8.846;2023-09-07T01:47:08;6.07;;;5.47;;
50585;SDS011;36542;51.700;8.846;2023-09-07T01:49:34;7.27;;;5.33;;
50585;SDS011;36542;51.700;8.846;2023-09-07T01:51:59;7.13;;;5.20;;
50585;SDS011;36542;51.700;8.846;2023-09-07T01:54:25;8.03;;;4.83;;
50585;SDS011;36542;51.700;8.846;2023-09-07T01:56:50;5.67;;;5.07;;
50585;SDS011;36542;51.700;8.846;2023-09-07T02:05:59;5.60;;;5.03;;
50585;SDS011;36542;51.700;8.846;2023-09-07T02:08:25;8.77;;;5.60;;
50585;SDS011;36542;51.700;8.846;2023-09-07T02:10:50;7.40;;;5.80;;
50585;SDS011;36542;51.700;8.846;2023-09-07T02:13:16;5.57;;;4.93;;
50585;SDS011;36542;51.700;8.846;2023-09-07T02:35:48;11.27;;;6.13;;
50585;SDS011;36542;51.700;8.846;2023-09-07T02:38:14;6.57;;;5.50;;
50585;SDS011;36542;51.700;8.846;2023-09-07T02:40:40;11.03;;;6.27;;
50585;SDS011;36542;51.700;8.846;2023-09-07T02:43:07;8.33;;;5.77;;
50585;SDS011;36542;51.700;8.846;2023-09-07T02:45:33;9.30;;;5.90;;
50585;SDS011;36542;51.700;8.846;2023-09-07T02:47:59;7.77;;;6.50;;
50585;SDS011;36542;51.700;8.846;2023-09-07T02:50:24;12.03;;;6.13;;
50585;SDS011;36542;51.700;8.846;2023-09-07T02:52:50;6.73;;;6.03;;
50585;SDS011;36542;51.700;8.846;2023-09-07T02:55:15;7.20;;;6.33;;
50585;SDS011;36542;51.700;8.846;2023-09-07T02:57:41;7.10;;;6.37;;
50585;SDS011;36542;51.700;8.846;2023-09-07T03:00:07;8.93;;;6.80;;
50585;SDS011;36542;51.700;8.846;2023-09-07T03:02:34;7.67;;;6.73;;
50585;SDS011;36542;51.700;8.846;2023-09-07T03:05:00;12.07;;;7.13;;
50585;SDS011;36542;51.700;8.846;2023-09-07T03:07:26;10.43;;;7.13;;
50585;SDS011;36542;51.700;8.846;2023-09-07T03:09:54;7.00;;;6.30;;
50585;SDS011;36542;51.700;8.846;2023-09-07T03:12:20;10.87;;;6.47;;
50585;SDS011;36542;51.700;8.846;2023-09-07T03:14:46;9.40;;;6.70;;
50585;SDS011;36542;51.700;8.846;2023-09-07T03:17:11;8.90;;;6.50;;
50585;SDS011;36542;51.700;8.846;2023-09-07T03:19:37;10.23;;;6.13;;
50585;SDS011;36542;51.700;8.846;2023-09-07T03:22:02;7.83;;;6.20;;
50585;SDS011;36542;51.700;8.846;2023-09-07T03:24:28;7.47;;;6.37;;
50585;SDS011;36542;51.700;8.846;2023-09-07T03:26:54;9.03;;;6.57;;
50585;SDS011;36542;51.700;8.846;2023-09-07T03:29:19;8.07;;;6.77;;
50585;SDS011;36542;51.700;8.846;2023-09-07T03:31:45;7.80;;;6.93;;
50585;SDS011;36542;51.700;8.846;2023-09-07T03:34:10;11.33;;;6.93;;
50585;SDS011;36542;51.700;8.846;2023-09-07T03:36:36;7.93;;;5.73;;
50585;SDS011;36542;51.700;8.846;2023-09-07T03:39:01;10.03;;;6.87;;
50585;SDS011;36542;51.700;8.846;2023-09-07T03:41:27;6.50;;;5.80;;
50585;SDS011;36542;51.700;8.846;2023-09-07T03:43:55;7.60;;;6.67;;
50585;SDS011;36542;51.700;8.846;2023-09-07T03:46:21;9.20;;;6.23;;
50585;SDS011;36542;51.700;8.846;2023-09-07T03:48:47;7.87;;;6.13;;
50585;SDS011;36542;51.700;8.846;2023-09-07T03:51:12;7.27;;;6.30;;
50585;SDS011;36542;51.700;8.846;2023-09-07T03:53:38;7.37;;;6.57;;
50585;SDS011;36542;51.700;8.846;2023-09-07T03:56:04;9.73;;;6.37;;
50585;SDS011;36542;51.700;8.846;2023-09-07T03:58:30;8.23;;;6.20;;
50585;SDS011;36542;51.700;8.846;2023-09-07T04:00:58;6.77;;;6.07;;
50585;SDS011;36542;51.700;8.846;2023-09-07T04:03:24;6.67;;;5.97;;
50585;SDS011;36542;51.700;8.846;2023-09-07T04:05:50;6.87;;;6.17;;
50585;SDS011;36542;51.700;8.846;2023-09-07T04:08:16;7.13;;;6.40;;
50585;SDS011;36542;51.700;8.846;2023-09-07T04:10:41;6.80;;;6.07;;
50585;SDS011;36542;51.700;8.846;2023-09-07T04:13:07;8.80;;;6.73;;
50585;SDS011;36542;51.700;8.846;2023-09-07T04:15:42;7.07;;;6.33;;
50585;SDS011;36542;51.700;8.846;2023-09-07T04:18:09;8.40;;;6.47;;
50585;SDS011;36542;51.700;8.846;2023-09-07T04:20:37;8.00;;;6.60;;
50585;SDS011;36542;51.700;8.846;2023-09-07T04:23:03;8.07;;;6.47;;
50585;SDS011;36542;51.700;8.846;2023-09-07T04:25:29;7.97;;;6.20;;
50585;SDS011;36542;51.700;8.846;2023-09-07T04:27:54;8.70;;;6.57;;
50585;SDS011;36542;51.700;8.846;2023-09-07T04:30:21;8.80;;;6.40;;
50585;SDS011;36542;51.700;8.846;2023-09-07T04:32:47;8.03;;;5.97;;
50585;SDS011;36542;51.700;8.846;2023-09-07T04:35:13;7.90;;;6.60;;
50585;SDS011;36542;51.700;8.846;2023-09-07T04:37:38;6.90;;;6.20;;
50585;SDS011;36542;51.700;8.846;2023-09-07T04:40:07;7.30;;;5.93;;
50585;SDS011;36542;51.700;8.846;2023-09-07T04:42:33;6.90;;;6.20;;
50585;SDS011;36542;51.700;8.846;2023-09-07T04:44:58;9.07;;;5.87;;
50585;SDS011;36542;51.700;8.846;2023-09-07T04:47:24;7.30;;;6.20;;
50585;SDS011;36542;51.700;8.846;2023-09-07T04:49:49;8.37;;;5.83;;
50585;SDS011;36542;51.700;8.846;2023-09-07T04:52:17;7.60;;;5.97;;
50585;SDS011;36542;51.700;8.846;2023-09-07T04:54:43;6.93;;;6.23;;
50585;SDS011;36542;51.700;8.846;2023-09-07T04:57:09;8.20;;;5.93;;
50585;SDS011;36542;51.700;8.846;2023-09-07T04:59:36;8.83;;;6.27;;
50585;SDS011;36542;51.700;8.846;2023-09-07T05:02:01;6.83;;;6.10;;
50585;SDS011;36542;51.700;8.846;2023-09-07T05:04:27;8.50;;;5.27;;
50585;SDS011;36542;51.700;8.846;2023-09-07T05:06:53;8.40;;;6.00;;
50585;SDS011;36542;51.700;8.846;2023-09-07T05:09:18;7.03;;;6.20;;
50585;SDS011;36542;51.700;8.846;2023-09-07T05:11:45;8.40;;;5.63;;
50585;SDS011;36542;51.700;8.846;2023-09-07T05:14:11;6.73;;;5.97;;
50585;SDS011;36542;51.700;8.846;2023-09-07T05:16:36;7.40;;;6.17;;
50585;SDS011;36542;51.700;8.846;2023-09-07T05:19:02;6.67;;;5.67;;
50585;SDS011;36542;51.700;8.846;2023-09-07T05:21:28;8.87;;;6.40;;
50585;SDS011;36542;51.700;8.846;2023-09-07T05:23:53;8.53;;;6.40;;
50585;SDS011;36542;51.700;8.846;2023-09-07T05:26:22;6.93;;;6.00;;
50585;SDS011;36542;51.700;8.846;2023-09-07T05:28:49;8.93;;;6.73;;
50585;SDS011;36542;51.700;8.846;2023-09-07T05:31:14;7.70;;;5.63;;
50585;SDS011;36542;51.700;8.846;2023-09-07T05:33:40;6.73;;;6.07;;
50585;SDS011;36542;51.700;8.846;2023-09-07T05:36:05;7.23;;;6.23;;
50585;SDS011;36542;51.700;8.846;2023-09-07T05:38:31;6.67;;;5.63;;
50585;SDS011;36542;51.700;8.846;2023-09-07T05:40:57;8.53;;;6.13;;
50585;SDS011;36542;51.700;8.846;2023-09-07T05:43:22;7.20;;;5.63;;
50585;SDS011;36542;51.700;8.846;2023-09-07T05:45:48;8.63;;;5.90;;
50585;SDS011;36542;51.700;8.846;2023-09-07T05:48:14;6.63;;;5.93;;
50585;SDS011;36542;51.700;8.846;2023-09-07T05:50:42;6.80;;;5.60;;
50585;SDS011;36542;51.700;8.846;2023-09-07T05:53:08;9.52;;;5.88;;
50585;SDS011;36542;51.700;8.846;2023-09-07T05:55:34;8.98;;;5.95;;
50585;SDS011;36542;51.700;8.846;2023-09-07T05:57:59;6.80;;;5.15;;
50585;SDS011;36542;51.700;8.846;2023-09-07T06:00:29;6.88;;;5.40;;
50585;SDS011;36542;51.700;8.846;2023-09-07T06:02:54;5.25;;;4.75;;
50585;SDS011;36542;51.700;8.846;2023-09-07T06:05:20;6.43;;;5.72;;
50585;SDS011;36542;51.700;8.846;2023-09-07T06:07:46;7.13;;;4.93;;
50585;SDS011;36542;51.700;8.846;2023-09-07T06:10:11;6.10;;;5.15;;
50585;SDS011;36542;51.700;8.846;2023-09-07T06:12:37;7.18;;;5.47;;
50585;SDS011;36542;51.700;8.846;2023-09-07T06:15:03;6.03;;;4.78;;
50585;SDS011;36542;51.700;8.846;2023-09-07T06:17:29;7.90;;;4.60;;
50585;SDS011;36542;51.700;8.846;2023-09-07T06:19:54;6.18;;;4.72;;
50585;SDS011;36542;51.700;8.846;2023-09-07T06:22:21;6.82;;;4.90;;
50585;SDS011;36542;51.700;8.846;2023-09-07T06:24:46;6.88;;;5.03;;
50585;SDS011;36542;51.700;8.846;2023-09-07T06:27:12;7.53;;;5.15;;
50585;SDS011;36542;51.700;8.846;2023-09-07T06:29:38;6.25;;;5.18;;
50585;SDS011;36542;51.700;8.846;2023-09-07T06:32:03;6.90;;;5.50;;
50585;SDS011;36542;51.700;8.846;2023-09-07T06:34:29;6.63;;;4.88;;
50585;SDS011;36542;51.700;8.846;2023-09-07T06:36:55;5.93;;;5.28;;
50585;SDS011;36542;51.700;8.846;2023-09-07T06:39:21;5.72;;;4.70;;
50585;SDS011;36542;51.700;8.846;2023-09-07T06:41:47;4.88;;;4.45;;
50585;SDS011;36542;51.700;8.846;2023-09-07T06:44:12;6.10;;;4.90;;
50585;SDS011;36542;51.700;8.846;2023-09-07T06:46:39;5.90;;;5.03;;
50585;SDS011;36542;51.700;8.846;2023-09-07T06:49:04;6.40;;;5.22;;
50585;SDS011;36542;51.700;8.846;2023-09-07T06:51:30;5.85;;;5.13;;
50585;SDS011;36542;51.700;8.846;2023-09-07T06:53:56;8.25;;;4.82;;
50585;SDS011;36542;51.700;8.846;2023-09-07T06:56:22;6.70;;;5.53;;
50585;SDS011;36542;51.700;8.846;2023-09-07T06:58:48;6.18;;;4.93;;
50585;SDS011;36542;51.700;8.846;2023-09-07T07:01:13;5.60;;;4.90;;
50585;SDS011;36542;51.700;8.846;2023-09-07T07:03:39;5.10;;;4.60;;
50585;SDS011;36542;51.700;8.846;2023-09-07T07:06:04;8.30;;;5.32;;
50585;SDS011;36542;51.700;8.846;2023-09-07T07:08:30;6.00;;;4.97;;
50585;SDS011;36542;51.700;8.846;2023-09-07T07:10:55;10.13;;;5.10;;
50585;SDS011;36542;51.700;8.846;2023-09-07T07:13:21;6.13;;;5.00;;
50585;SDS011;36542;51.700;8.846;2023-09-07T07:15:47;7.47;;;4.70;;
50585;SDS011;36542;51.700;8.846;2023-09-07T07:18:12;6.70;;;5.35;;
50585;SDS011;36542;51.700;8.846;2023-09-07T07:20:38;4.85;;;4.43;;
50585;SDS011;36542;51.700;8.846;2023-09-07T07:23:04;6.82;;;5.22;;
50585;SDS011;36542;51.700;8.846;2023-09-07T07:25:50;5.43;;;4.90;;
50585;SDS011;36542;51.700;8.846;2023-09-07T07:28:17;6.80;;;5.10;;
50585;SDS011;36542;51.700;8.846;2023-09-07T07:30:42;5.65;;;4.60;;
50585;SDS011;36542;51.700;8.846;2023-09-07T07:33:08;7.38;;;4.57;;
50585;SDS011;36542;51.700;8.846;2023-09-07T07:35:34;7.38;;;4.60;;
50585;SDS011;36542;51.700;8.846;2023-09-07T07:38:01;8.25;;;5.30;;
50585;SDS011;36542;51.700;8.846;2023-09-07T07:40:32;10.45;;;5.18;;
50585;SDS011;36542;51.700;8.846;2023-09-07T07:42:58;5.78;;;5.05;;
50585;SDS011;36542;51.700;8.846;2023-09-07T07:45:24;7.18;;;4.60;;
50585;SDS011;36542;51.700;8.846;2023-09-07T07:47:49;7.10;;;5.13;;
50585;SDS011;36542;51.700;8.846;2023-09-07T07:50:15;5.88;;;4.60;;
50585;SDS011;36542;51.700;8.846;2023-09-07T07:52:41;6.43;;;4.68;;
50585;SDS011;36542;51.700;8.846;2023-09-07T07:55:07;5.60;;;4.45;;
50585;SDS011;36542;51.700;8.846;2023-09-07T07:57:33;6.22;;;5.07;;
50585;SDS011;36542;51.700;8.846;2023-09-07T07:59:58;7.55;;;4.82;;
50585;SDS011;36542;51.700;8.846;2023-09-07T08:02:24;6.22;;;4.20;;
50585;SDS011;36542;51.700;8.846;2023-09-07T08:04:50;5.35;;;4.85;;
50585;SDS011;36542;51.700;8.846;2023-09-07T08:07:16;5.43;;;4.88;;
50585;SDS011;36542;51.700;8.846;2023-09-07T08:09:41;4.88;;;4.32;;
50585;SDS011;36542;51.700;8.846;2023-09-07T08:22:28;4.78;;;4.30;;
50585;SDS011;36542;51.700;8.846;2023-09-07T08:24:54;5.38;;;4.30;;
50585;SDS011;36542;51.700;8.846;2023-09-07T08:27:20;6.28;;;4.38;;
50585;SDS011;36542;51.700;8.846;2023-09-07T08:29:46;6.07;;;4.57;;
50585;SDS011;36542;51.700;8.846;2023-09-07T08:32:13;5.15;;;4.60;;
50585;SDS011;36542;51.700;8.846;2023-09-07T08:34:39;5.70;;;4.50;;
50585;SDS011;36542;51.700;8.846;2023-09-07T08:37:09;6.53;;;4.93;;
50585;SDS011;36542;51.700;8.846;2023-09-07T08:39:35;7.03;;;4.50;;
50585;SDS011;36542;51.700;8.846;2023-09-07T08:42:04;5.75;;;4.63;;
50585;SDS011;36542;51.700;8.846;2023-09-07T08:44:30;4.85;;;4.45;;
50585;SDS011;36542;51.700;8.846;2023-09-07T08:46:58;5.40;;;4.55;;
50585;SDS011;36542;51.700;8.846;2023-09-07T08:49:26;7.70;;;4.57;;
50585;SDS011;36542;51.700;8.846;2023-09-07T08:51:52;5.55;;;4.18;;
50585;SDS011;36542;51.700;8.846;2023-09-07T08:54:19;9.32;;;4.60;;
50585;SDS011;36542;51.700;8.846;2023-09-07T08:56:45;4.88;;;4.38;;
50585;SDS011;36542;51.700;8.846;2023-09-07T08:59:11;4.90;;;4.45;;
50585;SDS011;36542;51.700;8.846;2023-09-07T09:01:37;6.45;;;4.53;;
50585;SDS011;36542;51.700;8.846;2023-09-07T09:04:03;5.65;;;4.45;;
50585;SDS011;36542;51.700;8.846;2023-09-07T09:06:28;5.15;;;4.45;;
50585;SDS011;36542;51.700;8.846;2023-09-07T09:08:55;4.90;;;4.20;;
50585;SDS011;36542;51.700;8.846;2023-09-07T09:11:22;7.13;;;4.68;;
50585;SDS011;36542;51.700;8.846;2023-09-07T09:13:49;5.07;;;4.57;;
50585;SDS011;36542;51.700;8.846;2023-09-07T09:16:15;4.28;;;3.92;;
50585;SDS011;36542;51.700;8.846;2023-09-07T09:18:52;4.68;;;4.28;;
50585;SDS011;36542;51.700;8.846;2023-09-07T09:21:22;4.82;;;3.97;;
50585;SDS011;36542;51.700;8.846;2023-09-07T09:23:51;4.53;;;3.63;;
50585;SDS011;36542;51.700;8.846;2023-09-07T09:26:17;5.63;;;3.95;;
50585;SDS011;36542;51.700;8.846;2023-09-07T09:28:43;10.30;;;4.30;;
50585;SDS011;36542;51.700;8.846;2023-09-07T09:31:12;8.57;;;4.25;;
50585;SDS011;36542;51.700;8.846;2023-09-07T09:33:39;4.97;;;4.03;;
50585;SDS011;36542;51.700;8.846;2023-09-07T09:36:06;6.07;;;4.47;;
50585;SDS011;36542;51.700;8.846;2023-09-07T09:38:32;4.80;;;4.10;;
50585;SDS011;36542;51.700;8.846;2023-09-07T09:40:58;5.45;;;4.28;;
50585;SDS011;36542;51.700;8.846;2023-09-07T09:43:27;6.68;;;4.30;;
50585;SDS011;36542;51.700;8.846;2023-09-07T09:45:53;4.80;;;4.03;;
50585;SDS011;36542;51.700;8.846;2023-09-07T09:48:19;5.97;;;4.20;;
50585;SDS011;36542;51.700;8.846;2023-09-07T09:50:49;5.50;;;4.22;;
50585;SDS011;36542;51.700;8.846;2023-09-07T09:53:15;5.65;;;4.32;;
50585;SDS011;36542;51.700;8.846;2023-09-07T09:55:50;6.68;;;4.20;;
50585;SDS011;36542;51.700;8.846;2023-09-07T09:58:19;5.00;;;4.47;;
50585;SDS011;36542;51.700;8.846;2023-09-07T10:00:46;4.38;;;3.97;;
50585;SDS011;36542;51.700;8.846;2023-09-07T10:03:18;4.03;;;3.67;;
50585;SDS011;36542;51.700;8.846;2023-09-07T10:05:52;6.18;;;4.22;;
50585;SDS011;36542;51.700;8.846;2023-09-07T10:08:19;7.75;;;3.97;;
50585;SDS011;36542;51.700;8.846;2023-09-07T10:10:48;6.95;;;3.70;;
50585;SDS011;36542;51.700;8.846;2023-09-07T10:13:15;4.25;;;3.85;;
50585;SDS011;36542;51.700;8.846;2023-09-07T10:15:41;6.03;;;4.07;;
50585;SDS011;36542;51.700;8.846;2023-09-07T10:18:14;4.30;;;3.75;;
50585;SDS011;36542;51.700;8.846;2023-09-07T10:20:49;5.28;;;4.00;;
50585;SDS011;36542;51.700;8.846;2023-09-07T10:23:16;5.47;;;3.95;;
50585;SDS011;36542;51.700;8.846;2023-09-07T10:25:41;4.35;;;3.80;;
50585;SDS011;36542;51.700;8.846;2023-09-07T10:28:23;4.88;;;3.70;;
50585;SDS011;36542;51.700;8.846;2023-09-07T10:30:59;6.35;;;3.85;;
50585;SDS011;36542;51.700;8.846;2023-09-07T10:33:29;5.47;;;4.00;;
50585;SDS011;36542;51.700;8.846;2023-09-07T10:35:56;3.80;;;3.40;;
50585;SDS011;36542;51.700;8.846;2023-09-07T10:38:22;5.97;;;3.60;;
50585;SDS011;36542;51.700;8.846;2023-09-07T10:40:48;4.50;;;3.90;;
50585;SDS011;36542;51.700;8.846;2023-09-07T10:43:22;5.32;;;3.50;;
50585;SDS011;36542;51.700;8.846;2023-09-07T10:45:51;3.45;;;3.15;;
50585;SDS011;36542;51.700;8.846;2023-09-07T10:48:18;6.25;;;3.78;;
50585;SDS011;36542;51.700;8.846;2023-09-07T10:50:44;4.70;;;4.03;;
50585;SDS011;36542;51.700;8.846;2023-09-07T10:53:12;5.53;;;3.38;;
50585;SDS011;36542;51.700;8.846;2023-09-07T10:55:42;4.45;;;3.63;;
50585;SDS011;36542;51.700;8.846;2023-09-07T10:58:10;4.13;;;3.47;;
50585;SDS011;36542;51.700;8.846;2023-09-07T11:00:36;5.43;;;3.63;;
50585;SDS011;36542;51.700;8.846;2023-09-07T11:03:08;3.42;;;3.13;;
50585;SDS011;36542;51.700;8.846;2023-09-07T11:05:35;5.03;;;3.38;;
50585;SDS011;36542;51.700;8.846;2023-09-07T11:08:06;3.67;;;3.38;;
50585;SDS011;36542;51.700;8.846;2023-09-07T11:10:33;4.15;;;3.38;;
50585;SDS011;36542;51.700;8.846;2023-09-07T11:13:03;4.10;;;3.70;;
50585;SDS011;36542;51.700;8.846;2023-09-07T11:15:30;7.00;;;3.55;;
50585;SDS011;36542;51.700;8.846;2023-09-07T11:17:56;4.68;;;3.72;;
50585;SDS011;36542;51.700;8.846;2023-09-07T11:20:23;4.25;;;3.50;;
50585;SDS011;36542;51.700;8.846;2023-09-07T11:22:49;4.32;;;3.85;;
50585;SDS011;36542;51.700;8.846;2023-09-07T11:25:15;4.10;;;3.50;;
50585;SDS011;36542;51.700;8.846;2023-09-07T11:27:41;5.20;;;3.67;;
50585;SDS011;36542;51.700;8.846;2023-09-07T11:30:06;4.57;;;3.40;;
50585;SDS011;36542;51.700;8.846;2023-09-07T11:32:35;4.78;;;4.38;;
50585;SDS011;36542;51.700;8.846;2023-09-07T11:35:01;4.97;;;3.75;;
50585;SDS011;36542;51.700;8.846;2023-09-07T11:37:27;4.45;;;4.05;;
50585;SDS011;36542;51.700;8.846;2023-09-07T11:39:52;7.32;;;4.32;;
50585;SDS011;36542;51.700;8.846;2023-09-07T11:42:18;6.28;;;4.50;;
50585;SDS011;36542;51.700;8.846;2023-09-07T11:44:44;6.60;;;3.85;;
50585;SDS011;36542;51.700;8.846;2023-09-07T11:47:09;4.70;;;3.85;;
50585;SDS011;36542;51.700;8.846;2023-09-07T11:49:35;8.52;;;4.50;;
50585;SDS011;36542;51.700;8.846;2023-09-07T11:52:00;4.25;;;3.70;;
50585;SDS011;36542;51.700;8.846;2023-09-07T11:54:26;5.68;;;4.00;;
50585;SDS011;36542;51.700;8.846;2023-09-07T11:56:52;5.50;;;4.22;;
50585;SDS011;36542;51.700;8.846;2023-09-07T11:59:18;5.43;;;4.13;;
50585;SDS011;36542;51.700;8.846;2023-09-07T12:01:43;6.53;;;4.10;;
50585;SDS011;36542;51.700;8.846;2023-09-07T12:04:09;4.07;;;3.67;;
50585;SDS011;36542;51.700;8.846;2023-09-07T12:06:34;4.32;;;3.92;;
50585;SDS011;36542;51.700;8.846;2023-09-07T12:09:02;5.18;;;4.10;;
50585;SDS011;36542;51.700;8.846;2023-09-07T12:11:28;5.35;;;4.13;;
50585;SDS011;36542;51.700;8.846;2023-09-07T12:13:54;4.82;;;3.97;;
50585;SDS011;36542;51.700;8.846;2023-09-07T12:16:20;7.35;;;4.38;;
50585;SDS011;36542;51.700;8.846;2023-09-07T12:18:45;8.15;;;4.10;;
50585;SDS011;36542;51.700;8.846;2023-09-07T12:21:11;4.10;;;3.70;;
50585;SDS011;36542;51.700;8.846;2023-09-07T12:23:36;6.35;;;4.40;;
50585;SDS011;36542;51.700;8.846;2023-09-07T12:26:02;4.82;;;4.20;;
50585;SDS011;36542;51.700;8.846;2023-09-07T12:28:29;5.32;;;3.97;;
50585;SDS011;36542;51.700;8.846;2023-09-07T12:30:56;4.30;;;3.90;;
50585;SDS011;36542;51.700;8.846;2023-09-07T12:33:23;23.40;;;5.07;;
50585;SDS011;36542;51.700;8.846;2023-09-07T12:35:49;4.85;;;3.63;;
50585;SDS011;36542;51.700;8.846;2023-09-07T12:38:14;7.45;;;4.38;;
50585;SDS011;36542;51.700;8.846;2023-09-07T12:40:43;6.47;;;4.50;;
50585;SDS011;36542;51.700;8.846;2023-09-07T12:43:09;6.32;;;4.18;;
50585;SDS011;36542;51.700;8.846;2023-09-07T12:45:34;6.45;;;4.40;;
50585;SDS011;36542;51.700;8.846;2023-09-07T12:48:00;4.50;;;3.95;;
50585;SDS011;36542;51.700;8.846;2023-09-07T12:50:26;6.72;;;4.18;;
50585;SDS011;36542;51.700;8.846;2023-09-07T12:52:52;6.97;;;4.25;;
50585;SDS011;36542;51.700;8.846;2023-09-07T12:55:19;7.45;;;4.25;;
50585;SDS011;36542;51.700;8.846;2023-09-07T12:57:44;7.18;;;4.20;;
50585;SDS011;36542;51.700;8.846;2023-09-07T13:00:10;5.75;;;3.80;;
50585;SDS011;36542;51.700;8.846;2023-09-07T13:02:36;6.35;;;4.28;;
50585;SDS011;36542;51.700;8.846;2023-09-07T13:05:03;4.93;;;4.13;;
50585;SDS011;36542;51.700;8.846;2023-09-07T13:07:32;5.50;;;4.13;;
50585;SDS011;36542;51.700;8.846;2023-09-07T13:09:59;4.75;;;4.35;;
50585;SDS011;36542;51.700;8.846;2023-09-07T13:12:27;5.03;;;4.22;;
50585;SDS011;36542;51.700;8.846;2023-09-07T13:14:52;5.68;;;4.28;;
50585;SDS011;36542;51.700;8.846;2023-09-07T13:17:18;4.95;;;4.50;;
50585;SDS011;36542;51.700;8.846;2023-09-07T13:19:43;5.35;;;3.78;;
50585;SDS011;36542;51.700;8.846;2023-09-07T13:22:09;6.13;;;4.43;;
50585;SDS011;36542;51.700;8.846;2023-09-07T13:24:34;26.42;;;5.65;;
50585;SDS011;36542;51.700;8.846;2023-09-07T13:27:00;7.60;;;4.32;;
50585;SDS011;36542;51.700;8.846;2023-09-07T13:29:28;5.57;;;4.38;;
50585;SDS011;36542;51.700;8.846;2023-09-07T13:31:53;4.90;;;4.50;;
50585;SDS011;36542;51.700;8.846;2023-09-07T13:34:20;5.60;;;4.18;;
50585;SDS011;36542;51.700;8.846;2023-09-07T13:36:46;4.70;;;4.35;;
50585;SDS011;36542;51.700;8.846;2023-09-07T13:39:11;5.43;;;3.92;;
50585;SDS011;36542;51.700;8.846;2023-09-07T13:41:37;5.20;;;4.53;;
50585;SDS011;36542;51.700;8.846;2023-09-07T13:44:03;4.90;;;4.50;;
50585;SDS011;36542;51.700;8.846;2023-09-07T13:46:28;5.97;;;4.55;;
50585;SDS011;36542;51.700;8.846;2023-09-07T13:48:54;8.65;;;5.10;;
50585;SDS011;36542;51.700;8.846;2023-09-07T13:51:20;4.60;;;3.92;;
50585;SDS011;36542;51.700;8.846;2023-09-07T13:53:45;5.25;;;4.32;;
50585;SDS011;36542;51.700;8.846;2023-09-07T13:56:11;10.00;;;4.10;;
50585;SDS011;36542;51.700;8.846;2023-09-07T13:58:36;6.32;;;4.47;;
50585;SDS011;36542;51.700;8.846;2023-09-07T14:01:02;5.72;;;4.25;;
50585;SDS011;36542;51.700;8.846;2023-09-07T14:03:27;7.45;;;4.43;;
50585;SDS011;36542;51.700;8.846;2023-09-07T14:05:53;5.38;;;4.38;;
50585;SDS011;36542;51.700;8.846;2023-09-07T14:08:19;4.80;;;3.80;;
50585;SDS011;36542;51.700;8.846;2023-09-07T14:10:48;5.32;;;4.38;;
50585;SDS011;36542;51.700;8.846;2023-09-07T14:13:14;4.05;;;3.70;;
50585;SDS011;36542;51.700;8.846;2023-09-07T14:15:39;6.05;;;4.15;;
50585;SDS011;36542;51.700;8.846;2023-09-07T14:18:05;5.18;;;3.85;;
50585;SDS011;36542;51.700;8.846;2023-09-07T14:20:32;4.78;;;4.38;;
50585;SDS011;36542;51.700;8.846;2023-09-07T14:22:59;18.35;;;5.18;;
50585;SDS011;36542;51.700;8.846;2023-09-07T14:25:25;5.15;;;4.25;;
50585;SDS011;36542;51.700;8.846;2023-09-07T14:27:54;4.57;;;3.60;;
50585;SDS011;36542;51.700;8.846;2023-09-07T14:30:20;11.00;;;4.85;;
50585;SDS011;36542;51.700;8.846;2023-09-07T14:32:46;4.00;;;3.70;;
50585;SDS011;36542;51.700;8.846;2023-09-07T14:35:12;3.72;;;3.42;;
50585;SDS011;36542;51.700;8.846;2023-09-07T14:37:38;5.85;;;4.30;;
50585;SDS011;36542;51.700;8.846;2023-09-07T14:40:05;4.82;;;3.90;;
50585;SDS011;36542;51.700;8.846;2023-09-07T14:42:32;7.57;;;4.25;;
50585;SDS011;36542;51.700;8.846;2023-09-07T14:44:58;6.25;;;4.05;;
50585;SDS011;36542;51.700;8.846;2023-09-07T14:47:26;4.68;;;3.95;;
50585;SDS011;36542;51.700;8.846;2023-09-07T14:49:55;4.28;;;3.88;;
50585;SDS011;36542;51.700;8.846;2023-09-07T14:52:20;4.20;;;3.72;;
50585;SDS011;36542;51.700;8.846;2023-09-07T14:54:48;7.00;;;4.00;;
50585;SDS011;36542;51.700;8.846;2023-09-07T14:57:14;8.13;;;4.35;;
50585;SDS011;36542;51.700;8.846;2023-09-07T14:59:39;24.50;;;6.78;;
50585;SDS011;36542;51.700;8.846;2023-09-07T15:02:05;14.32;;;5.20;;
50585;SDS011;36542;51.700;8.846;2023-09-07T15:04:31;7.20;;;4.32;;
50585;SDS011;36542;51.700;8.846;2023-09-07T15:06:57;5.47;;;4.13;;
50585;SDS011;36542;51.700;8.846;2023-09-07T15:09:22;6.65;;;4.68;;
50585;SDS011;36542;51.700;8.846;2023-09-07T15:11:48;8.48;;;4.10;;
50585;SDS011;36542;51.700;8.846;2023-09-07T15:14:13;7.10;;;4.25;;
50585;SDS011;36542;51.700;8.846;2023-09-07T15:16:39;6.88;;;4.65;;
50585;SDS011;36542;51.700;8.846;2023-09-07T15:19:04;12.85;;;5.07;;
50585;SDS011;36542;51.700;8.846;2023-09-07T15:21:30;4.50;;;4.00;;
50585;SDS011;36542;51.700;8.846;2023-09-07T15:23:56;14.23;;;5.40;;
50585;SDS011;36542;51.700;8.846;2023-09-07T15:26:23;7.20;;;4.05;;